Terminal Aerodrome Forecast
Issued by NWS

Home | Current Version | Previous Version | Text Only | Print | Product List | Glossary Off
Versions: 1 2 3 4 5 6 7 8 9 10 11 12 13 14 15 16 17

000
FTUS43 KBIS 151100
TAFDIK
TAF
KDIK 151125Z 1512/1612 34017G25KT P6SM VCSH OVC008
      TEMPO 1512/1515 -FZDZSN
     FM151800 34015KT P6SM OVC010
     FM160000 33008KT P6SM OVC010=

USA.gov is the U.S. government's official web portal to all federal, state and local government web resources and services.